Time;durP1;ratioP1;P1;durP2;ratioP2;P2;SDS_P1;SDS_P2;PMS_P1;PMS_P2;Temp;Humidity;BMP_temperature;BMP_pressure;BME280_temperature;BME280_humidity;BME280_pressure;Samples;Min_cycle;Max_cycle;Signal;HPM_P1;HPM_P2
2022/01/18 00:01:24;;;;;;;52.30;6.25;;;;;;;;;;5102887;28;20104;-74
2022/01/18 00:03:51;;;;;;;48.83;5.93;;;;;;;;;;5078104;28;20043;-74
2022/01/18 00:06:17;;;;;;;47.70;5.57;;;;;;;;;;5077512;28;20036;-74
2022/01/18 00:08:43;;;;;;;51.22;5.03;;;;;;;;;;5090623;28;20124;-74
2022/01/18 00:11:09;;;;;;;46.53;5.78;;;;;;;;;;5111330;28;20444;-74
2022/01/18 00:13:39;;;;;;;59.53;6.40;;;;;;;;;;5108321;28;20089;-74
2022/01/18 00:18:34;;;;;;;59.85;5.57;;;6.10;99.90;;;;;;5094252;28;20044;-74
2022/01/18 00:23:33;;;;;;;58.08;6.82;;;6.10;99.90;;;;;;5109014;28;20485;-74
2022/01/18 00:25:59;;;;;;;59.40;5.45;;;;;;;;;;5098406;28;20039;-74
2022/01/18 00:28:27;;;;;;;58.03;5.88;;;6.00;99.90;;;;;;5093711;28;20377;-74
2022/01/18 00:36:29;;;;;;;44.85;5.00;;;;;;;;;;5092430;28;20071;-74
2022/01/18 00:38:56;;;;;;;51.25;5.05;;;6.00;99.90;;;;;;5109861;28;20122;-74
2022/01/18 00:41:25;;;;;;;44.22;4.70;;;6.10;99.90;;;;;;5091167;28;20063;-74
2022/01/18 00:43:51;;;;;;;51.10;4.45;;;;;;;;;;5110467;28;20036;-74
2022/01/18 00:46:17;;;;;;;42.03;5.28;;;;;;;;;;5108309;28;20036;-74
2022/01/18 00:48:43;;;;;;;40.17;4.72;;;6.40;99.90;;;;;;5093739;28;20403;-74
2022/01/18 00:51:12;;;;;;;53.97;5.07;;;6.00;99.90;;;;;;5095642;28;20032;-74
2022/01/18 00:53:39;;;;;;;40.15;5.15;;;5.80;99.90;;;;;;5093268;28;20044;-74
2022/01/18 00:58:35;;;;;;;44.72;4.72;;;;;;;;;;5105854;28;20083;-74
2022/01/18 01:01:01;;;;;;;45.72;4.60;;;;;;;;;;5111580;28;20476;-75
2022/01/18 01:03:27;;;;;;;70.75;6.50;;;;;;;;;;5093889;28;20032;-74
2022/01/18 01:05:53;;;;;;;53.60;4.47;;;;;;;;;;5093133;28;20113;-74
2022/01/18 01:08:19;;;;;;;46.72;4.45;;;;;;;;;;5095636;28;20043;-74
2022/01/18 01:10:46;;;;;;;56.40;4.35;;;;;;;;;;5093072;28;20085;-75
2022/01/18 01:13:13;;;;;;;53.92;5.13;;;5.80;99.90;;;;;;5105592;28;20039;-75
2022/01/18 01:18:34;;;;;;;52.80;5.40;;;5.90;99.90;;;;;;5096958;28;20125;-74
2022/01/18 01:33:11;;;;;;;43.20;4.72;;;;;;;;;;5108050;28;20125;-74
2022/01/18 01:34:53;;;;;;;53.08;4.63;;;5.90;99.90;;;;;;5096890;28;20042;-74
2022/01/18 01:43:12;;;;;;;35.50;4.68;;;;;;;;;;5102030;28;20063;-74
2022/01/18 01:45:39;;;;;;;42.47;5.75;;;;;;;;;;5091738;28;20073;-74
2022/01/18 01:48:05;;;;;;;43.67;5.40;;;;;;;;;;5101651;28;20470;-74
2022/01/18 01:50:51;;;;;;;45.03;5.90;;;6.00;99.90;;;;;;5093277;28;20043;-74
2022/01/18 01:53:19;;;;;;;49.83;5.95;;;5.80;99.90;;;;;;5079385;28;20035;-74
2022/01/18 01:55:46;;;;;;;43.38;5.13;;;5.80;99.90;;;;;;5075482;28;20108;-74
2022/01/18 01:58:12;;;;;;;50.92;5.05;;;;;;;;;;5101019;28;20131;-74
2022/01/18 02:00:44;;;;;;;46.83;4.65;;;5.80;99.90;;;;;;5109516;28;20062;-74
2022/01/18 02:03:10;;;;;;;35.95;5.15;;;;;;;;;;5103277;28;20048;-75
2022/01/18 02:05:36;;;;;;;47.05;4.45;;;5.00;99.90;;;;;;5092282;28;20064;-74
2022/01/18 02:08:06;;;;;;;48.53;4.97;;;;;;;;;;5094912;28;20075;-74
2022/01/18 02:10:32;;;;;;;40.45;4.25;;;;;;;;;;5093222;28;20089;-74
2022/01/18 02:12:58;;;;;;;44.28;4.55;;;;;;;;;;5098426;28;20383;-74
2022/01/18 02:15:25;;;;;;;39.70;4.15;;;;;;;;;;5095553;28;20039;-74
2022/01/18 02:23:24;;;;;;;37.88;4.65;;;;;;;;;;5092484;28;20412;-74
2022/01/18 02:25:50;;;;;;;37.80;4.65;;;;;;;;;;5096169;28;20462;-74
2022/01/18 02:28:21;;;;;;;29.95;4.30;;;6.00;99.90;;;;;;5100754;28;20487;-74
2022/01/18 02:30:47;;;;;;;43.75;4.00;;;;;;;;;;5113665;28;20044;-74
2022/01/18 02:33:14;;;;;;;36.42;3.95;;;5.90;99.90;;;;;;5110954;28;20036;-74
2022/01/18 02:35:41;;;;;;;46.22;4.80;;;;;;;;;;5095942;28;20040;-74
2022/01/18 02:38:07;;;;;;;37.17;5.20;;;;;;;;;;5080403;28;20121;-73
2022/01/18 02:40:33;;;;;;;38.83;5.00;;;;;;;;;;5097017;28;20047;-73
2022/01/18 02:43:46;;;;;;;35.17;3.30;;;5.90;99.90;;;;;;5094621;28;20755;-74
2022/01/18 02:45:47;;;;;;;34.15;3.97;;;;;;;;;;5112405;28;20735;-74
2022/01/18 02:48:14;;;;;;;44.17;4.03;;;;;;;;;;5111651;28;20062;-74
2022/01/18 02:50:40;;;;;;;33.30;3.75;;;;;;;;;;5097354;28;20039;-74
2022/01/18 02:53:06;;;;;;;32.40;4.03;;;;;;;;;;5097288;28;20528;-74
2022/01/18 02:55:32;;;;;;;34.60;3.60;;;;;;;;;;5095979;28;20032;-74
2022/01/18 02:58:04;;;;;;;37.08;3.70;;;;;;;;;;5097064;28;20379;-74
2022/01/18 03:00:42;;;;;;;20.55;2.83;;;;;;;;;;5112340;28;20079;-74
2022/01/18 03:03:16;;;;;;;24.40;3.70;;;;;;;;;;5107386;28;20036;-74
2022/01/18 03:05:45;;;;;;;23.83;3.58;;;5.90;99.90;;;;;;5079065;28;20032;-74
2022/01/18 03:08:12;;;;;;;28.42;3.35;;;5.70;99.90;;;;;;5079658;28;20073;-74
2022/01/18 03:10:39;;;;;;;25.55;3.30;;;5.80;99.90;;;;;;5112130;28;20042;-74
2022/01/18 03:13:06;;;;;;;30.20;4.95;;;;;;;;;;5113789;28;20035;-74
2022/01/18 03:15:34;;;;;;;25.60;3.75;;;5.80;99.90;;;;;;5105780;28;20088;-74
2022/01/18 03:18:01;;;;;;;26.73;3.20;;;6.10;99.90;;;;;;5112126;28;20040;-74
2022/01/18 03:20:27;;;;;;;24.38;2.97;;;5.80;99.90;;;;;;5101234;28;20464;-74
2022/01/18 03:22:54;;;;;;;26.10;2.97;;;;;;;;;;5095317;28;20028;-74
2022/01/18 03:28:05;;;;;;;29.48;3.20;;;6.60;99.90;;;;;;5109379;28;20051;-74
2022/01/18 03:30:37;;;;;;;22.65;2.78;;;5.90;99.90;;;;;;5110283;28;20042;-74
2022/01/18 03:33:05;;;;;;;25.35;2.92;;;5.80;99.90;;;;;;5113347;28;20479;-74
2022/01/18 03:35:31;;;;;;;34.58;3.70;;;;;;;;;;5103180;28;20035;-74
2022/01/18 03:37:58;;;;;;;34.72;3.13;;;;;;;;;;5079688;28;20042;-74
2022/01/18 03:40:24;;;;;;;30.15;3.05;;;;;;;;;;5104298;28;20053;-74
2022/01/18 03:42:51;;;;;;;23.70;2.75;;;;;;;;;;5096181;28;20035;-74
2022/01/18 03:45:20;;;;;;;20.67;3.00;;;6.10;99.90;;;;;;5090317;28;20051;-74
2022/01/18 03:47:46;;;;;;;18.08;3.80;;;;;;;;;;5110427;28;20077;-74
2022/01/18 03:50:14;;;;;;;29.27;3.17;;;6.00;99.90;;;;;;5106480;28;20032;-74
2022/01/18 03:52:42;;;;;;;22.27;3.03;;;6.00;99.90;;;;;;5105715;28;20173;-74
2022/01/18 03:55:10;;;;;;;29.08;2.63;;;6.70;99.90;;;;;;5111703;28;20502;-74
2022/01/18 03:57:36;;;;;;;21.33;2.22;;;;;;;;;;5113098;28;20054;-74
2022/01/18 04:00:05;;;;;;;27.50;2.85;;;6.10;99.90;;;;;;5108099;28;20090;-74
2022/01/18 04:02:33;;;;;;;27.33;4.32;;;;;;;;;;5110518;28;20043;-74
2022/01/18 04:04:59;;;;;;;30.25;3.47;;;;;;;;;;5106445;28;20509;-74
2022/01/18 04:07:25;;;;;;;25.55;2.83;;;;;;;;;;5077414;28;20042;-74
2022/01/18 04:09:51;;;;;;;18.02;2.67;;;;;;;;;;5084744;28;20418;-74
2022/01/18 04:12:18;;;;;;;23.52;2.63;;;;;;;;;;5094508;28;20471;-74
2022/01/18 04:14:44;;;;;;;18.98;3.30;;;;;;;;;;5097033;28;20043;-73
2022/01/18 04:17:48;;;;;;;17.27;2.20;;;;;;;;;;5095462;28;20047;-74
2022/01/18 04:25:55;;;;;;;23.88;2.53;;;6.10;99.90;;;;;;5062113;28;20135;-74
2022/01/18 04:30:51;;;;;;;22.85;3.10;;;;;;;;;;5083602;28;20048;-74
2022/01/18 04:33:17;;;;;;;21.30;2.90;;;;;;;;;;5108646;28;20089;-74
2022/01/18 04:35:43;;;;;;;25.27;3.22;;;;;;;;;;5098558;28;20058;-73
2022/01/18 04:38:09;;;;;;;22.88;2.63;;;;;;;;;;5111187;28;20035;-73
2022/01/18 04:40:39;;;;;;;23.73;3.08;;;;;;;;;;5108471;28;20040;-74
2022/01/18 04:43:13;;;;;;;24.02;2.65;;;;;;;;;;5099303;28;20054;-73
2022/01/18 04:50:50;;;;;;;26.48;2.53;;;;;;;;;;5109748;28;20074;-74
2022/01/18 04:53:17;;;;;;;11.93;2.65;;;;;;;;;;5092087;28;20097;-73
2022/01/18 04:55:43;;;;;;;10.90;2.85;;;;;;;;;;5096174;28;20446;-75
2022/01/18 04:58:09;;;;;;;20.98;3.08;;;;;;;;;;5111422;28;20519;-73
2022/01/18 05:00:35;;;;;;;23.65;2.58;;;;;;;;;;5094544;28;20472;-74
2022/01/18 05:03:01;;;;;;;18.95;2.55;;;;;;;;;;5079269;28;20545;-73
2022/01/18 05:05:30;;;;;;;16.77;2.28;;;;;;;;;;5093662;28;20036;-73
2022/01/18 05:07:59;;;;;;;29.42;2.85;;;;;;;;;;5093637;28;20040;-74
2022/01/18 05:10:29;;;;;;;24.65;3.58;;;6.80;99.90;;;;;;5093904;28;20497;-74
2022/01/18 05:12:57;;;;;;;21.92;3.45;;;6.10;99.90;;;;;;5094425;28;20044;-74
2022/01/18 05:18:59;;;;;;;32.50;3.85;;;6.10;99.90;;;;;;5110892;28;20468;-74
2022/01/18 05:23:08;;;;;;;20.08;3.80;;;;;;;;;;5089182;28;20054;-74
2022/01/18 05:25:36;;;;;;;30.67;3.25;;;;;;;;;;5093227;28;20056;-74
2022/01/18 05:28:04;;;;;;;32.08;3.53;;;6.00;99.90;;;;;;5110108;28;20052;-74
2022/01/18 05:30:31;;;;;;;25.20;3.38;;;6.00;99.90;;;;;;5106015;28;20044;-73
2022/01/18 05:32:58;;;;;;;28.95;3.35;;;6.00;99.90;;;;;;5109236;28;20475;-73
2022/01/18 05:35:24;;;;;;;24.67;3.83;;;;;;;;;;5110996;28;20035;-73
2022/01/18 05:37:50;;;;;;;28.38;3.22;;;;;;;;;;5106214;28;20078;-73
2022/01/18 05:40:17;;;;;;;26.45;3.75;;;6.00;99.90;;;;;;5086894;28;20040;-73
2022/01/18 05:42:46;;;;;;;16.88;2.80;;;6.00;99.90;;;;;;5093269;28;20483;-73
2022/01/18 05:45:14;;;;;;;32.28;3.70;;;6.10;99.90;;;;;;5092718;28;20039;-73
2022/01/18 05:47:41;;;;;;;22.10;3.03;;;6.20;99.90;;;;;;5105829;28;20119;-73
2022/01/18 05:50:08;;;;;;;30.92;4.93;;;;;;;;;;5085241;28;20074;-73
2022/01/18 05:52:34;;;;;;;32.35;4.47;;;;;;;;;;5099235;28;20141;-74
2022/01/18 05:55:00;;;;;;;23.17;3.78;;;;;;;;;;5092461;28;20050;-73
2022/01/18 05:57:27;;;;;;;27.27;4.28;;;;;;;;;;5102375;28;20441;-74
2022/01/18 06:00:00;;;;;;;27.50;4.90;;;;;;;;;;5100671;28;20456;-74
2022/01/18 06:07:40;;;;;;;33.20;3.58;;;;;;;;;;5100444;28;20465;-74
2022/01/18 06:10:06;;;;;;;22.85;4.15;;;5.70;99.90;;;;;;5078236;28;20028;-74
2022/01/18 06:12:32;;;;;;;33.20;4.05;;;;;;;;;;5100719;28;20556;-74
2022/01/18 06:14:59;;;;;;;31.05;3.88;;;;;;;;;;5111155;28;20040;-74
2022/01/18 06:17:25;;;;;;;27.15;4.30;;;6.00;99.90;;;;;;5092717;28;20116;-74
2022/01/18 06:19:51;;;;;;;34.45;5.47;;;;;;;;;;5110702;28;20044;-73
2022/01/18 06:22:17;;;;;;;26.67;4.60;;;;;;;;;;5098321;28;20491;-74
2022/01/18 06:24:43;;;;;;;29.55;4.60;;;;;;;;;;5092192;28;20036;-74
2022/01/18 06:27:10;;;;;;;24.40;4.15;;;;;;;;;;5096932;28;20055;-73
2022/01/18 06:29:36;;;;;;;25.25;5.30;;;5.90;99.90;;;;;;5092356;28;20058;-73
2022/01/18 06:32:04;;;;;;;30.27;4.63;;;6.00;99.90;;;;;;5099011;28;20028;-73
2022/01/18 06:34:31;;;;;;;35.38;5.00;;;;;;;;;;5098991;28;20043;-73
2022/01/18 06:36:57;;;;;;;26.67;4.90;;;;;;;;;;5101770;28;20048;-73
2022/01/18 06:39:23;;;;;;;28.00;4.72;;;;;;;;;;5088959;28;20157;-73
2022/01/18 06:41:49;;;;;;;32.90;5.22;;;;;;;;;;5083220;28;20449;-74
2022/01/18 06:44:15;;;;;;;27.10;5.07;;;;;;;;;;5099811;28;20488;-74
2022/01/18 06:46:42;;;;;;;24.80;5.65;;;;;;;;;;5098726;28;20039;-74
2022/01/18 06:49:08;;;;;;;29.67;5.60;;;;;;;;;;5093277;28;20040;-74
2022/01/18 06:51:34;;;;;;;28.88;5.30;;;;;;;;;;5076452;28;20036;-73
2022/01/18 06:54:00;;;;;;;22.20;5.03;;;;;;;;;;5077375;28;20095;-73
2022/01/18 06:56:27;;;;;;;27.52;5.93;;;;;;;;;;5078785;28;20055;-73
2022/01/18 06:58:53;;;;;;;27.23;6.68;;;;;;;;;;5108267;28;20044;-74
2022/01/18 07:01:20;;;;;;;42.25;8.25;;;;;;;;;;5107014;28;20043;-73
2022/01/18 07:03:48;;;;;;;33.78;6.57;;;5.30;99.90;;;;;;5108795;28;20507;-73
2022/01/18 07:06:14;;;;;;;34.05;7.68;;;;;;;;;;5095372;28;20046;-73
2022/01/18 07:08:40;;;;;;;43.45;6.68;;;;;;;;;;5085123;28;20396;-73
2022/01/18 07:11:06;;;;;;;47.40;7.82;;;6.20;99.90;;;;;;5107678;28;20038;-73
2022/01/18 07:13:33;;;;;;;56.95;8.32;;;;;;;;;;5100808;28;20052;-73
2022/01/18 07:15:59;;;;;;;45.28;7.97;;;;;;;;;;5095453;28;20032;-74
2022/01/18 07:18:25;;;;;;;37.85;7.03;;;;;;;;;;5111637;28;20478;-73
2022/01/18 07:20:51;;;;;;;64.43;5.90;;;;;;;;;;5113717;28;20046;-73
2022/01/18 07:23:18;;;;;;;35.28;5.68;;;;;;;;;;5099167;28;20115;-73
2022/01/18 07:25:46;;;;;;;77.68;5.90;;;6.00;99.90;;;;;;5080307;28;20084;-73
2022/01/18 07:28:14;;;;;;;39.95;6.90;;;;;;;;;;5098281;28;20094;-73
2022/01/18 07:30:40;;;;;;;26.85;6.22;;;;;;;;;;5113557;28;20093;-74
2022/01/18 07:33:06;;;;;;;42.45;6.65;;;;;;;;;;5102670;28;20061;-74
2022/01/18 07:35:34;;;;;;;42.47;6.38;;;6.50;99.90;;;;;;5094674;28;20070;-74
2022/01/18 07:38:01;;;;;;;47.10;6.38;;;;;;;;;;5106342;28;20039;-74
2022/01/18 07:40:29;;;;;;;42.85;5.95;;;6.00;99.90;;;;;;5112819;28;20038;-74
2022/01/18 07:42:55;;;;;;;13.93;4.50;;;;;;;;;;5102837;28;20050;-76
2022/01/18 07:45:22;;;;;;;50.13;6.70;;;;;;;;;;5094512;28;20506;-73
2022/01/18 07:47:48;;;;;;;13.20;5.43;;;;;;;;;;5103358;28;20032;-74
2022/01/18 07:50:14;;;;;;;29.65;4.95;;;;;;;;;;5113003;28;20043;-74
2022/01/18 07:52:40;;;;;;;37.45;5.22;;;;;;;;;;5103762;28;20544;-73
2022/01/18 07:55:07;;;;;;;49.95;4.78;;;6.00;99.90;;;;;;5098589;28;20088;-73
2022/01/18 07:57:33;;;;;;;59.17;5.00;;;;;;;;;;5071991;28;20046;-74
2022/01/18 08:00:00;;;;;;;28.38;4.90;;;;;;;;;;5105721;28;20039;-74
2022/01/18 08:02:26;;;;;;;73.82;5.63;;;;;;;;;;5094897;28;20063;-74
2022/01/18 08:04:52;;;;;;;40.08;5.45;;;;;;;;;;5101498;28;20047;-74
2022/01/18 08:07:18;;;;;;;49.40;5.00;;;;;;;;;;5114985;28;20040;-74
2022/01/18 08:09:44;;;;;;;22.77;4.50;;;;;;;;;;5097735;28;20043;-74
2022/01/18 08:12:10;;;;;;;22.58;3.80;;;;;;;;;;5113560;28;20043;-74
2022/01/18 08:14:41;;;;;;;18.17;4.30;;;;;;;;;;5114557;28;20551;-74
2022/01/18 08:17:09;;;;;;;46.88;4.45;;;;;;;;;;5105205;28;20046;-74
2022/01/18 08:19:36;;;;;;;74.32;4.80;;;5.70;99.90;;;;;;5060983;28;20054;-74
2022/01/18 08:22:03;;;;;;;18.13;4.53;;;4.90;99.90;;;;;;5094010;28;20043;-74
2022/01/18 08:24:29;;;;;;;28.23;4.50;;;;;;;;;;5113041;28;20054;-74
2022/01/18 08:26:55;;;;;;;48.13;4.68;;;;;;;;;;5114579;28;20372;-74
2022/01/18 08:29:21;;;;;;;25.20;5.22;;;5.20;99.90;;;;;;5095540;28;20051;-74
2022/01/18 08:31:47;;;;;;;18.63;4.50;;;;;;;;;;5112426;28;20032;-74
2022/01/18 08:34:14;;;;;;;22.60;4.72;;;5.80;99.90;;;;;;5098897;28;20119;-74
2022/01/18 08:36:40;;;;;;;41.53;4.57;;;;;;;;;;5077070;28;20044;-74
2022/01/18 08:39:07;;;;;;;19.98;5.32;;;;;;;;;;5104229;28;20047;-73
2022/01/18 08:41:33;;;;;;;25.58;4.95;;;;;;;;;;5097216;28;20071;-73
2022/01/18 08:43:59;;;;;;;24.27;4.45;;;;;;;;;;5094877;28;20044;-73
2022/01/18 08:46:26;;;;;;;15.27;3.88;;;;;;;;;;5113843;28;20495;-74
2022/01/18 08:48:52;;;;;;;23.60;4.55;;;;;;;;;;5086553;28;20039;-74
2022/01/18 08:51:18;;;;;;;15.32;3.47;;;;;;;;;;5093362;28;20043;-74
2022/01/18 08:53:48;;;;;;;22.95;3.28;;;5.80;99.90;;;;;;5099450;28;20040;-73
2022/01/18 08:56:16;;;;;;;12.18;3.33;;;5.70;99.90;;;;;;5076313;28;20153;-73
2022/01/18 08:58:42;;;;;;;9.55;2.92;;;;;;;;;;5083731;28;20046;-74
2022/01/18 09:01:08;;;;;;;11.43;2.30;;;;;;;;;;5113875;28;20100;-73
2022/01/18 09:03:34;;;;;;;11.27;2.42;;;;;;;;;;5107791;28;20040;-73
2022/01/18 09:06:03;;;;;;;20.48;3.08;;;;;;;;;;5113505;28;20075;-73
2022/01/18 09:08:29;;;;;;;26.65;3.22;;;;;;;;;;5091796;28;20389;-73
2022/01/18 09:10:55;;;;;;;21.73;3.20;;;;;;;;;;5093342;28;20044;-73
2022/01/18 09:13:24;;;;;;;12.15;3.25;;;;;;;;;;5102184;28;20050;-73
2022/01/18 09:15:51;;;;;;;15.25;3.20;;;6.00;99.90;;;;;;5092927;28;20442;-73
2022/01/18 09:18:17;;;;;;;10.55;2.72;;;;;;;;;;5077008;28;20032;-73
2022/01/18 09:20:43;;;;;;;8.40;3.20;;;;;;;;;;5096393;28;20495;-73
2022/01/18 09:23:10;;;;;;;13.50;3.10;;;;;;;;;;5111813;28;20047;-73
2022/01/18 09:25:36;;;;;;;13.70;2.67;;;;;;;;;;5112178;28;20089;-73
2022/01/18 09:28:03;;;;;;;12.20;2.95;;;;;;;;;;5112197;28;20063;-73
2022/01/18 09:30:31;;;;;;;8.73;2.88;;;6.00;99.90;;;;;;5095083;28;20044;-73
2022/01/18 09:32:58;;;;;;;11.07;2.97;;;;;;;;;;5093027;28;20043;-73
2022/01/18 09:35:25;;;;;;;6.55;3.35;;;5.90;99.90;;;;;;5078667;28;20047;-74
2022/01/18 09:37:51;;;;;;;8.60;3.35;;;6.00;99.90;;;;;;5075694;28;20043;-73
2022/01/18 09:40:19;;;;;;;12.82;3.70;;;6.00;99.90;;;;;;5107047;28;20049;-74
2022/01/18 09:42:53;;;;;;;12.18;3.70;;;6.20;99.90;;;;;;5095935;28;20044;-73
2022/01/18 09:45:20;;;;;;;17.13;4.13;;;6.10;99.90;;;;;;5107797;28;20176;-74
2022/01/18 09:47:49;;;;;;;12.68;3.90;;;6.00;99.90;;;;;;5095740;28;20467;-73
2022/01/18 09:50:29;;;;;;;15.80;4.30;;;6.10;99.90;;;;;;5100000;28;20140;-73
2022/01/18 09:52:58;;;;;;;11.75;3.63;;;6.10;99.90;;;;;;5092734;28;20077;-72
2022/01/18 09:55:26;;;;;;;11.95;4.20;;;;;;;;;;5097487;28;20136;-73
2022/01/18 09:57:56;;;;;;;10.85;3.88;;;6.20;99.90;;;;;;5111720;28;20043;-73
2022/01/18 10:00:24;;;;;;;13.10;4.18;;;;;;;;;;5112350;28;20197;-73
2022/01/18 10:02:50;;;;;;;19.50;3.88;;;;;;;;;;5112484;28;20042;-73
2022/01/18 10:05:28;;;;;;;10.43;3.50;;;6.10;99.90;;;;;;5105911;28;20036;-73
2022/01/18 10:07:56;;;;;;;11.93;3.47;;;6.10;99.90;;;;;;5106330;28;20036;-74
2022/01/18 10:10:45;;;;;;;12.65;3.70;;;6.20;99.90;;;;;;5103971;28;20035;-73
2022/01/18 10:13:22;;;;;;;7.25;3.60;;;6.30;99.90;;;;;;5112462;28;20101;-73
2022/01/18 10:15:57;;;;;;;17.00;3.70;;;;;;;;;;5098029;28;20613;-73
2022/01/18 10:18:37;;;;;;;13.32;3.60;;;6.10;99.90;;;;;;5075063;28;20093;-73
2022/01/18 10:21:06;;;;;;;13.55;3.38;;;5.50;99.90;;;;;;5106050;28;20043;-73
2022/01/18 10:23:32;;;;;;;12.27;3.88;;;;;;;;;;5091958;28;20047;-73
2022/01/18 10:26:15;;;;;;;11.35;3.58;;;6.20;99.90;;;;;;5106129;28;20039;-72
2022/01/18 10:28:41;;;;;;;13.65;3.95;;;;;;;;;;5106742;28;20062;-73
2022/01/18 10:31:24;;;;;;;14.10;4.22;;;;;;;;;;5116921;28;20035;-73
2022/01/18 10:34:10;;;;;;;14.75;4.60;;;;;;;;;;5096689;28;20392;-73
2022/01/18 10:36:36;;;;;;;19.65;4.95;;;;;;;;;;5098559;28;20054;-73
2022/01/18 10:39:03;;;;;;;12.93;4.63;;;;;;;;;;5103818;28;20089;-73
2022/01/18 10:41:34;;;;;;;11.20;4.78;;;6.10;99.90;;;;;;5095814;28;20048;-73
2022/01/18 10:44:13;;;;;;;14.95;4.53;;;6.10;99.90;;;;;;5115323;28;20046;-73
2022/01/18 10:46:39;;;;;;;18.23;4.22;;;;;;;;;;5078834;28;20472;-73
2022/01/18 10:49:06;;;;;;;16.67;4.38;;;5.90;99.90;;;;;;5079746;28;20071;-73
2022/01/18 10:51:34;;;;;;;12.35;4.60;;;6.20;99.90;;;;;;5097499;28;20043;-73
2022/01/18 10:54:06;;;;;;;12.23;5.15;;;6.10;99.90;;;;;;5097033;28;20078;-73
2022/01/18 10:56:43;;;;;;;19.52;5.47;;;5.30;99.90;;;;;;5081920;28;20044;-73
2022/01/18 10:59:24;;;;;;;29.83;6.22;;;6.00;99.90;;;;;;5095752;28;20079;-73
2022/01/18 11:02:13;;;;;;;22.15;5.93;;;6.30;99.90;;;;;;5115930;28;20075;-72
2022/01/18 11:04:39;;;;;;;24.63;5.80;;;;;;;;;;5114975;28;20046;-72
2022/01/18 11:07:05;;;;;;;37.17;5.13;;;;;;;;;;5078478;28;20115;-72
2022/01/18 11:09:32;;;;;;;18.55;4.25;;;;;;;;;;5115379;28;20097;-72
2022/01/18 11:11:58;;;;;;;14.52;3.95;;;;;;;;;;5096090;28;20109;-72
2022/01/18 11:14:25;;;;;;;7.13;3.90;;;;;;;;;;5089177;28;20081;-72
2022/01/18 11:16:55;;;;;;;13.23;3.75;;;6.20;99.90;;;;;;5095174;28;20050;-72
2022/01/18 11:21:49;;;;;;;16.17;4.18;;;6.20;99.90;;;;;;5098298;28;20055;-72
2022/01/18 11:24:17;;;;;;;10.88;3.45;;;6.20;99.90;;;;;;5077940;28;20059;-72
2022/01/18 11:26:44;;;;;;;17.08;3.83;;;6.30;99.90;;;;;;5110245;28;20032;-73
2022/01/18 11:29:12;;;;;;;11.68;3.83;;;6.20;99.90;;;;;;5115207;28;20059;-73
2022/01/18 11:31:40;;;;;;;7.85;3.80;;;;;;;;;;5099935;28;20125;-73
2022/01/18 11:34:09;;;;;;;10.75;4.00;;;6.30;99.90;;;;;;5113760;28;20055;-73
2022/01/18 11:36:46;;;;;;;10.02;3.90;;;6.20;99.90;;;;;;5113346;27;20058;-73
2022/01/18 11:39:12;;;;;;;7.10;3.78;;;;;;;;;;5122595;27;20044;-73
2022/01/18 11:41:38;;;;;;;7.13;3.60;;;;;;;;;;5077802;28;20044;-73
2022/01/18 11:44:19;;;;;;;9.70;3.92;;;6.10;99.90;;;;;;5099698;28;20064;-71
2022/01/18 11:46:52;;;;;;;9.18;4.28;;;6.00;99.90;;;;;;5110359;28;20046;-71
2022/01/18 11:49:30;;;;;;;13.15;4.28;;;6.20;99.90;;;;;;5097140;28;20040;-72
2022/01/18 11:51:59;;;;;;;14.23;4.05;;;6.20;99.90;;;;;;5100119;28;20174;-72
2022/01/18 11:54:58;;;;;;;15.40;4.35;;;6.30;99.90;;;;;;5094354;28;20044;-72
2022/01/18 11:57:24;;;;;;;15.52;4.97;;;6.50;99.90;;;;;;5077542;28;20047;-72
2022/01/18 11:59:52;;;;;;;16.33;5.07;;;;;;;;;;5094068;28;20040;-72
2022/01/18 12:02:28;;;;;;;17.08;5.45;;;6.10;99.90;;;;;;5094261;28;20471;-72
2022/01/18 12:04:56;;;;;;;12.95;4.70;;;;;;;;;;5094300;28;20044;-72
2022/01/18 12:07:34;;;;;;;12.55;5.45;;;6.00;99.90;;;;;;5094379;28;20092;-72
2022/01/18 12:10:27;;;;;;;15.27;5.80;;;6.20;99.90;;;;;;5094200;28;20051;-72
2022/01/18 12:12:54;;;;;;;19.67;5.95;;;;;;;;;;5094206;28;20040;-72
2022/01/18 12:15:22;;;;;;;21.50;6.03;;;;;;;;;;5094520;28;20421;-72
2022/01/18 12:18:01;;;;;;;36.38;7.13;;;6.10;99.90;;;;;;5093993;28;20488;-72
2022/01/18 12:20:34;;;;;;;31.17;5.85;;;;;;;;;;5093981;28;20047;-72
2022/01/18 12:23:09;;;;;;;22.48;6.22;;;6.10;99.90;;;;;;5094214;28;20048;-72
2022/01/18 12:25:37;;;;;;;17.63;5.80;;;;;;;;;;5093776;28;20043;-72
2022/01/18 12:34:31;;;;;;;18.75;6.43;;;;;;;;;;5095182;28;20630;-73
2022/01/18 12:39:54;;;;;;;15.30;5.65;;;6.10;99.90;;;;;;5093945;28;20388;-73
2022/01/18 12:45:09;;;;;;;14.85;5.50;;;;;;;;;;5065086;28;20075;-73
2022/01/18 12:47:37;;;;;;;15.45;5.93;;;6.00;99.90;;;;;;5077331;28;20078;-72
2022/01/18 12:50:06;;;;;;;16.75;6.05;;;6.00;99.90;;;;;;5076645;28;20044;-74
2022/01/18 12:52:59;;;;;;;20.23;7.20;;;6.10;99.90;;;;;;5090256;28;20051;-73
2022/01/18 12:55:28;;;;;;;16.52;6.07;;;;;;;;;;5076933;28;20075;-73
2022/01/18 12:58:06;;;;;;;25.13;6.13;;;6.10;99.90;;;;;;5088728;28;20046;-73
2022/01/18 13:00:37;;;;;;;14.30;6.43;;;6.00;99.90;;;;;;5113397;28;20044;-73
2022/01/18 13:03:03;;;;;;;14.88;6.90;;;;;;;;;;5095788;28;20154;-74
2022/01/18 13:05:42;;;;;;;17.45;6.20;;;6.00;99.90;;;;;;5099409;28;20047;-73
2022/01/18 13:08:10;;;;;;;18.50;7.00;;;6.20;99.90;;;;;;5095182;28;20032;-73
2022/01/18 13:10:55;;;;;;;19.17;6.13;;;5.90;99.90;;;;;;5096468;28;20036;-73
2022/01/18 13:13:29;;;;;;;19.00;7.30;;;6.20;99.90;;;;;;5094444;28;20043;-73
2022/01/18 13:26:28;;;;;;;31.65;9.88;;;;;;;;;;5113068;28;20131;-73
2022/01/18 13:28:54;;;;;;;30.08;9.27;;;;;;;;;;5075795;28;20370;-77
2022/01/18 13:31:22;;;;;;;23.23;8.68;;;6.00;99.90;;;;;;5093248;28;20469;-73
2022/01/18 13:33:55;;;;;;;36.05;10.65;;;5.80;99.90;;;;;;5092612;28;20050;-74
2022/01/18 13:36:21;;;;;;;33.83;9.50;;;;;;;;;;5101451;28;20511;-74
2022/01/18 13:38:49;;;;;;;31.42;10.40;;;;;;;;;;5113225;28;20048;-75
2022/01/18 13:41:15;;;;;;;25.23;10.43;;;;;;;;;;5113182;28;20130;-74
2022/01/18 13:43:42;;;;;;;28.10;11.77;;;;;;;;;;5103307;27;20039;-74
2022/01/18 13:46:09;;;;;;;27.58;10.88;;;;;;;;;;5111533;28;20044;-74
2022/01/18 13:48:35;;;;;;;31.90;10.23;;;;;;;;;;5092683;28;20380;-74
2022/01/18 13:51:14;;;;;;;24.05;10.75;;;5.90;99.90;;;;;;5092717;28;20098;-74
2022/01/18 13:53:41;;;;;;;33.85;10.73;;;6.00;99.90;;;;;;5103916;28;20048;-73
2022/01/18 13:56:13;;;;;;;23.67;10.50;;;;;;;;;;5082058;28;20047;-73
2022/01/18 13:58:47;;;;;;;25.17;10.15;;;;;;;;;;5092430;28;20391;-73
2022/01/18 14:01:20;;;;;;;29.90;11.07;;;5.80;99.90;;;;;;5075473;28;20109;-73
2022/01/18 14:03:52;;;;;;;26.13;10.50;;;5.70;99.90;;;;;;5102271;28;20047;-73
2022/01/18 14:06:19;;;;;;;25.95;10.80;;;;;;;;;;5112298;28;20040;-73
2022/01/18 14:08:52;;;;;;;27.70;11.38;;;5.70;99.90;;;;;;5095730;28;20035;-73
2022/01/18 14:11:20;;;;;;;19.60;9.52;;;;;;;;;;5110033;28;20063;-73
2022/01/18 14:13:46;;;;;;;25.13;10.20;;;;;;;;;;5092699;28;20051;-73
2022/01/18 14:16:32;;;;;;;20.50;10.07;;;;;;;;;;5108124;28;20542;-73
2022/01/18 14:19:06;;;;;;;26.38;10.35;;;;;;;;;;5074056;28;20040;-73
2022/01/18 14:21:38;;;;;;;24.88;9.98;;;5.80;99.90;;;;;;5091435;28;20040;-73
2022/01/18 14:24:07;;;;;;;;;;;5.60;99.90;;;;;;5100917;28;20044;-74
2022/01/18 14:26:35;;;;;;;23.77;10.05;;;;;;;;;;5112243;28;19916;-73
2022/01/18 14:29:01;;;;;;;28.27;9.43;;;;;;;;;;5111748;28;20048;-73
2022/01/18 14:31:27;;;;;;;19.27;9.20;;;;;;;;;;5085150;28;20476;-73
2022/01/18 14:33:53;;;;;;;24.45;10.43;;;5.40;99.90;;;;;;5108895;28;20092;-73
2022/01/18 14:36:19;;;;;;;18.85;9.00;;;;;;;;;;5108992;28;20388;-73
2022/01/18 14:38:45;;;;;;;20.02;9.00;;;;;;;;;;5107360;28;20050;-74
2022/01/18 14:41:21;;;;;;;30.85;9.98;;;5.40;99.90;;;;;;5093938;28;20043;-74
2022/01/18 14:43:47;;;;;;;21.55;8.73;;;;;;;;;;5108853;28;20040;-74
2022/01/18 14:46:37;;;;;;;40.95;7.82;;;6.20;99.90;;;;;;5101063;28;20484;-74
2022/01/18 14:49:03;;;;;;;17.75;7.63;;;;;;;;;;5101433;28;20036;-74
2022/01/18 14:51:29;;;;;;;15.48;7.90;;;;;;;;;;5106181;28;20491;-74
2022/01/18 14:53:55;;;;;;;17.73;7.78;;;;;;;;;;5107837;28;20511;-74
2022/01/18 14:56:21;;;;;;;28.15;8.13;;;;;;;;;;5109952;28;20395;-74
2022/01/18 14:58:47;;;;;;;38.10;7.25;;;4.70;99.90;;;;;;5104762;28;20108;-74
2022/01/18 15:01:13;;;;;;;16.88;8.32;;;;;;;;;;5092779;28;20476;-74
2022/01/18 15:03:40;;;;;;;15.25;8.30;;;;;;;;;;5084697;28;20047;-74
2022/01/18 15:06:06;;;;;;;13.95;7.93;;;;;;;;;;5091426;28;20101;-74
2022/01/18 15:08:32;;;;;;;15.90;8.43;;;;;;;;;;5083801;28;20028;-74
2022/01/18 15:10:58;;;;;;;36.35;8.90;;;;;;;;;;5110437;28;20039;-74
2022/01/18 15:13:23;;;;;;;28.35;8.65;;;4.70;99.90;;;;;;5103383;28;20040;-74
2022/01/18 15:15:49;;;;;;;21.60;8.05;;;;;;;;;;5107595;28;20067;-74
2022/01/18 15:18:16;;;;;;;15.63;7.95;;;;;;;;;;5104635;28;20492;-74
2022/01/18 15:20:42;;;;;;;20.25;9.45;;;;;;;;;;5074649;28;20044;-74
2022/01/18 15:23:08;;;;;;;29.52;9.30;;;;;;;;;;5095144;28;20119;-74
2022/01/18 15:25:34;;;;;;;30.27;9.20;;;;;;;;;;5088177;28;20479;-74